createdAt,value
2022-12-23T00:00:56.251Z,97.76
2022-12-23T00:03:26.685Z,98.05
2022-12-23T00:05:56.550Z,98.28
2022-12-23T00:08:26.610Z,98.49
2022-12-23T00:10:58.759Z,98.87
2022-12-23T00:13:46.960Z,99.40
2022-12-23T00:16:17.364Z,99.90
2022-12-23T00:18:47.110Z,99.99
2022-12-23T00:21:18.605Z,99.97
2022-12-23T00:23:50.961Z,99.77
2022-12-23T00:26:20.639Z,97.96
2022-12-23T00:28:50.296Z,99.00
2022-12-23T00:31:22.280Z,99.40
2022-12-23T00:33:55.337Z,99.62
2022-12-23T00:36:31.277Z,99.99
2022-12-23T00:39:19.792Z,99.99
2022-12-23T00:42:09.000Z,99.99
2022-12-23T00:44:39.284Z,99.99
2022-12-23T00:47:29.136Z,99.99
2022-12-23T00:49:58.993Z,99.99
2022-12-23T00:52:28.572Z,99.99
2022-12-23T00:54:58.269Z,99.99
2022-12-23T00:57:28.081Z,99.99
2022-12-23T00:59:57.616Z,99.99
2022-12-23T01:02:53.885Z,99.99
2022-12-23T01:05:39.468Z,99.99
2022-12-23T01:08:13.664Z,99.99
2022-12-23T01:10:43.746Z,99.99
2022-12-23T01:13:13.586Z,99.99
2022-12-23T01:15:43.129Z,99.99
2022-12-23T01:18:12.656Z,99.99
2022-12-23T01:20:42.960Z,99.99
2022-12-23T01:23:13.944Z,99.99
2022-12-23T01:25:44.274Z,99.99
2022-12-23T01:28:13.787Z,99.99
2022-12-23T01:30:43.313Z,99.99
2022-12-23T01:33:12.840Z,99.99
2022-12-23T01:35:42.629Z,99.99
2022-12-23T01:38:12.221Z,99.99
2022-12-23T01:40:44.893Z,99.43
2022-12-23T01:43:18.820Z,97.14
2022-12-23T01:45:50.327Z,95.95
2022-12-23T01:48:26.117Z,94.43
2022-12-23T01:51:01.464Z,93.12
2022-12-23T01:53:39.845Z,91.89
2022-12-23T01:56:21.466Z,93.84
2022-12-23T01:59:03.735Z,93.87
2022-12-23T02:01:51.479Z,92.58
2022-12-23T02:04:26.061Z,93.36
2022-12-23T02:07:14.277Z,95.13
2022-12-23T02:09:44.002Z,95.86
2022-12-23T02:12:43.938Z,92.75
2022-12-23T02:15:41.703Z,92.00
2022-12-23T02:18:35.780Z,92.76
2022-12-23T02:21:14.959Z,92.47
2022-12-23T02:24:08.508Z,91.88
2022-12-23T02:27:03.394Z,94.18
2022-12-23T02:30:06.919Z,91.59
2022-12-23T02:32:50.002Z,93.06
2022-12-23T02:35:29.079Z,92.13
2022-12-23T02:37:59.078Z,94.13
2022-12-23T02:40:46.728Z,95.84
2022-12-23T02:43:37.623Z,96.22
2022-12-23T02:46:22.495Z,96.71
2022-12-23T02:49:38.358Z,97.61
2022-12-23T02:52:16.206Z,94.97
2022-12-23T02:54:55.318Z,94.92
2022-12-23T02:57:31.086Z,95.75
2022-12-23T03:00:02.939Z,94.82
2022-12-23T03:02:37.419Z,91.21
2022-12-23T03:05:24.534Z,93.04
2022-12-23T03:07:57.127Z,92.06
2022-12-23T03:10:53.847Z,94.28
2022-12-23T03:13:35.709Z,95.56
2022-12-23T03:16:29.017Z,95.44
2022-12-23T03:19:18.064Z,96.76
2022-12-23T03:22:20.613Z,97.50
2022-12-23T03:25:26.862Z,97.66
2022-12-23T03:28:02.274Z,98.44
2022-12-23T03:30:34.903Z,99.45
2022-12-23T03:33:35.961Z,99.43
2022-12-23T03:36:17.909Z,99.99
2022-12-23T03:38:50.260Z,99.83
2022-12-23T03:41:42.893Z,99.99
2022-12-23T03:44:22.812Z,99.99
2022-12-23T03:47:00.526Z,99.99
2022-12-23T03:49:54.435Z,99.99
2022-12-23T03:52:36.998Z,99.99
2022-12-23T03:55:12.527Z,99.99
2022-12-23T03:58:23.525Z,99.99
2022-12-23T04:01:18.630Z,99.99
2022-12-23T04:04:12.603Z,99.99
2022-12-23T04:07:02.490Z,99.99
2022-12-23T04:09:32.222Z,99.99
2022-12-23T04:12:02.335Z,99.99
2022-12-23T04:14:34.089Z,99.99
2022-12-23T04:17:04.729Z,99.99
2022-12-23T04:19:34.549Z,99.99
2022-12-23T04:22:04.521Z,99.99
2022-12-23T04:24:34.073Z,99.99
2022-12-23T04:27:04.012Z,99.99
2022-12-23T04:29:33.819Z,99.99
2022-12-23T04:32:03.456Z,99.99
2022-12-23T04:34:33.002Z,99.99
2022-12-23T04:37:02.615Z,99.99
2022-12-23T04:39:32.126Z,99.99
2022-12-23T04:42:02.155Z,99.99
2022-12-23T04:44:31.803Z,99.99
2022-12-23T04:47:01.391Z,99.99
2022-12-23T04:49:31.851Z,99.99
2022-12-23T04:52:02.520Z,99.99
2022-12-23T04:54:32.038Z,99.99
2022-12-23T04:57:01.691Z,99.99
2022-12-23T04:59:33.142Z,99.99
2022-12-23T05:02:03.541Z,99.99
2022-12-23T05:04:33.315Z,99.99
2022-12-23T05:07:02.912Z,99.99
2022-12-23T05:09:32.415Z,99.99
2022-12-23T05:12:01.968Z,99.99
2022-12-23T05:14:31.777Z,99.99
2022-12-23T05:17:07.227Z,99.99
2022-12-23T05:19:37.507Z,99.99
2022-12-23T05:22:07.165Z,99.42
2022-12-23T05:24:36.700Z,98.78
2022-12-23T05:27:06.679Z,99.25
2022-12-23T05:29:36.497Z,99.19
2022-12-23T05:32:06.396Z,99.26
2022-12-23T05:34:35.989Z,99.31
2022-12-23T05:37:05.530Z,99.07
2022-12-23T05:39:35.088Z,98.86
2022-12-23T05:42:04.883Z,98.09
2022-12-23T05:44:34.707Z,99.12
2022-12-23T05:47:04.336Z,99.20
2022-12-23T05:49:33.927Z,98.95
2022-12-23T05:52:03.530Z,99.63
2022-12-23T05:54:33.181Z,99.99
2022-12-23T05:57:02.723Z,99.99
2022-12-23T05:59:32.699Z,99.99
2022-12-23T06:02:02.931Z,99.99
2022-12-23T06:04:32.497Z,99.99
2022-12-23T06:07:02.001Z,99.99
2022-12-23T06:09:31.539Z,99.99
2022-12-23T06:12:01.045Z,99.99
2022-12-23T06:14:31.066Z,99.99
2022-12-23T06:17:00.738Z,99.99
2022-12-23T06:19:30.611Z,99.99
2022-12-23T06:22:00.118Z,99.99
2022-12-23T06:24:29.720Z,99.99
2022-12-23T06:26:59.306Z,99.99
2022-12-23T06:29:29.707Z,99.99
2022-12-23T06:32:00.385Z,99.99
2022-12-23T06:34:29.996Z,99.99
2022-12-23T06:36:59.759Z,99.99
2022-12-23T06:39:30.388Z,99.99
2022-12-23T06:42:00.158Z,99.99
2022-12-23T06:44:29.664Z,99.99
2022-12-23T06:46:59.488Z,99.99
2022-12-23T06:49:29.012Z,99.99
2022-12-23T06:51:58.506Z,99.99
2022-12-23T06:54:28.017Z,99.99
2022-12-23T06:56:57.684Z,99.99
2022-12-23T06:59:28.167Z,99.99
2022-12-23T07:01:58.170Z,99.99
2022-12-23T07:04:27.900Z,99.99
2022-12-23T07:06:58.969Z,99.99
2022-12-23T07:09:29.055Z,99.99
2022-12-23T07:11:58.912Z,99.99
2022-12-23T07:14:28.596Z,99.99
2022-12-23T07:16:58.188Z,99.99
2022-12-23T07:19:27.799Z,99.99
2022-12-23T07:21:57.333Z,99.99
2022-12-23T07:24:27.052Z,99.99
2022-12-23T07:26:57.081Z,99.99
2022-12-23T07:29:27.536Z,99.99
2022-12-23T07:31:57.189Z,99.99
2022-12-23T07:34:26.754Z,99.99
2022-12-23T07:36:57.235Z,99.99
2022-12-23T07:39:26.935Z,99.99
2022-12-23T07:42:16.577Z,99.99
2022-12-23T07:44:46.693Z,99.99
2022-12-23T07:47:16.619Z,99.99
2022-12-23T07:49:46.104Z,99.99
2022-12-23T07:52:15.699Z,99.99
2022-12-23T07:54:45.570Z,99.99
2022-12-23T07:57:15.516Z,99.99
2022-12-23T07:59:45.027Z,99.99
2022-12-23T08:02:14.641Z,99.99
2022-12-23T08:04:46.380Z,99.99
2022-12-23T08:07:16.619Z,99.99
2022-12-23T08:09:46.328Z,99.99
2022-12-23T08:12:16.327Z,99.99
2022-12-23T08:14:46.750Z,99.99
2022-12-23T08:17:16.407Z,99.99
2022-12-23T08:19:46.004Z,99.99
2022-12-23T08:22:15.634Z,99.99
2022-12-23T08:24:45.402Z,99.99
2022-12-23T08:27:15.399Z,99.99
2022-12-23T08:29:44.912Z,99.99
2022-12-23T08:32:14.443Z,99.99
2022-12-23T08:34:43.991Z,99.99
2022-12-23T08:37:14.011Z,99.99
2022-12-23T08:39:44.865Z,99.99
2022-12-23T08:42:14.726Z,99.99
2022-12-23T08:44:45.189Z,99.99
2022-12-23T08:47:14.792Z,99.99
2022-12-23T08:49:44.381Z,99.99
2022-12-23T08:52:14.360Z,99.99
2022-12-23T08:54:43.939Z,99.99
2022-12-23T08:57:13.566Z,99.99
2022-12-23T08:59:43.188Z,99.99
2022-12-23T09:02:15.949Z,99.99
2022-12-23T09:04:46.136Z,99.99
2022-12-23T09:07:16.068Z,99.99
2022-12-23T09:09:45.568Z,99.99
2022-12-23T09:12:15.167Z,99.99
2022-12-23T09:14:48.755Z,99.99
2022-12-23T09:17:18.999Z,99.99
2022-12-23T09:19:52.761Z,99.99
2022-12-23T09:22:23.737Z,99.22
2022-12-23T09:24:53.268Z,98.42
2022-12-23T09:27:23.115Z,97.80
2022-12-23T09:29:52.777Z,96.95
2022-12-23T09:32:22.765Z,96.53
2022-12-23T09:34:52.292Z,95.70
2022-12-23T09:37:21.839Z,94.16
2022-12-23T09:39:51.351Z,93.45
2022-12-23T09:42:32.587Z,92.68
2022-12-23T09:45:40.677Z,92.04
2022-12-23T09:48:17.483Z,89.66
2022-12-23T09:50:47.884Z,89.03
2022-12-23T09:53:22.507Z,86.82
2022-12-23T09:56:15.026Z,84.84
2022-12-23T09:58:52.121Z,83.67
2022-12-23T10:01:29.710Z,83.92
2022-12-23T10:04:23.760Z,82.86
2022-12-23T10:07:23.507Z,82.26
2022-12-23T10:09:56.629Z,81.70
2022-12-23T10:12:43.648Z,80.33
2022-12-23T10:15:44.627Z,82.17
2022-12-23T10:18:23.923Z,80.99
2022-12-23T10:21:04.906Z,79.79
2022-12-23T10:23:39.501Z,80.27
2022-12-23T10:26:33.288Z,81.73
2022-12-23T10:29:19.086Z,80.53
2022-12-23T10:32:09.039Z,80.41
2022-12-23T10:34:42.099Z,78.93
2022-12-23T10:37:49.274Z,77.19
2022-12-23T10:40:48.482Z,79.85
2022-12-23T10:43:43.608Z,79.00
2022-12-23T10:46:22.621Z,78.00
2022-12-23T10:49:30.113Z,77.28
2022-12-23T10:52:25.395Z,77.38
2022-12-23T10:54:55.133Z,76.01
2022-12-23T10:57:25.879Z,75.51
2022-12-23T10:59:56.192Z,75.12
2022-12-23T11:02:45.352Z,74.45
2022-12-23T11:05:19.958Z,75.65
2022-12-23T11:07:50.082Z,74.63
2022-12-23T11:10:29.638Z,73.63
2022-12-23T11:12:59.703Z,77.15
2022-12-23T11:15:39.629Z,74.18
2022-12-23T11:18:20.133Z,72.97
2022-12-23T11:21:07.961Z,75.67
2022-12-23T11:23:38.373Z,73.04
2022-12-23T11:26:15.803Z,72.59
2022-12-23T11:28:54.995Z,71.20
2022-12-23T11:31:30.470Z,70.95
2022-12-23T11:34:01.380Z,70.98
2022-12-23T11:36:34.365Z,73.22
2022-12-23T11:39:08.389Z,73.80
2022-12-23T11:41:40.474Z,77.79
2022-12-23T11:44:24.613Z,75.71
2022-12-23T11:46:54.751Z,74.87
2022-12-23T11:49:32.523Z,75.06
2022-12-23T11:52:11.078Z,75.81
2022-12-23T11:54:40.719Z,76.74
2022-12-23T11:57:20.181Z,75.44
2022-12-23T11:59:51.551Z,74.98
2022-12-23T12:02:23.552Z,74.43
2022-12-23T12:05:21.137Z,74.44
2022-12-23T12:07:52.671Z,73.36
2022-12-23T12:10:32.690Z,72.74
2022-12-23T12:13:06.306Z,71.63
2022-12-23T12:15:39.205Z,71.33
2022-12-23T12:18:13.116Z,69.10
2022-12-23T12:21:00.294Z,68.05
2022-12-23T12:24:17.207Z,70.46
2022-12-23T12:26:52.416Z,69.43
2022-12-23T12:29:48.575Z,70.98
2022-12-23T12:32:33.529Z,68.99
2022-12-23T12:35:29.874Z,68.04
2022-12-23T12:38:08.040Z,68.29
2022-12-23T12:40:53.985Z,67.14
2022-12-23T12:43:35.702Z,68.22
2022-12-23T12:46:06.093Z,64.32
2022-12-23T12:48:50.876Z,65.99
2022-12-23T12:51:42.005Z,64.59
2022-12-23T12:54:29.095Z,68.58
2022-12-23T12:57:00.903Z,66.18
2022-12-23T12:59:35.285Z,66.55
2022-12-23T13:02:23.039Z,67.60
2022-12-23T13:04:58.389Z,66.61
2022-12-23T13:08:00.193Z,64.82
2022-12-23T13:10:57.520Z,64.13
2022-12-23T13:13:30.128Z,63.64
2022-12-23T13:16:05.514Z,65.86
2022-12-23T13:18:56.464Z,64.85
2022-12-23T13:21:29.681Z,65.74
2022-12-23T13:24:13.152Z,61.16
2022-12-23T13:27:16.057Z,62.86
2022-12-23T13:29:58.304Z,60.33
2022-12-23T13:33:08.975Z,63.12
2022-12-23T13:36:05.993Z,64.09
2022-12-23T13:38:54.352Z,61.54
2022-12-23T13:41:34.492Z,63.08
2022-12-23T13:44:10.751Z,62.42
2022-12-23T13:46:49.302Z,62.07
2022-12-23T13:49:33.881Z,63.46
2022-12-23T13:52:15.690Z,62.74
2022-12-23T13:55:23.358Z,63.87
2022-12-23T13:58:12.635Z,62.49
2022-12-23T14:00:42.599Z,61.12
2022-12-23T14:03:15.939Z,60.03
2022-12-23T14:05:53.742Z,59.84
2022-12-23T14:08:53.225Z,60.69
2022-12-23T14:11:30.011Z,61.54
2022-12-23T14:14:03.048Z,62.02
2022-12-23T14:16:39.658Z,59.88
2022-12-23T14:19:33.654Z,62.62
2022-12-23T14:22:24.034Z,60.10
2022-12-23T14:25:28.032Z,63.02
2022-12-23T14:27:58.139Z,60.09
2022-12-23T14:30:36.960Z,61.32
2022-12-23T14:33:27.495Z,59.00
2022-12-23T14:36:15.475Z,58.69
2022-12-23T14:39:14.600Z,57.08
2022-12-23T14:41:55.609Z,54.76
2022-12-23T14:44:39.233Z,55.19
2022-12-23T14:47:40.558Z,56.14
2022-12-23T14:50:35.273Z,54.90
2022-12-23T14:53:24.507Z,56.12
2022-12-23T14:56:20.292Z,54.93
2022-12-23T14:58:53.842Z,55.34
2022-12-23T15:01:30.991Z,56.52
2022-12-23T15:04:06.870Z,56.41
2022-12-23T15:06:52.212Z,57.54
2022-12-23T15:09:29.596Z,55.87
2022-12-23T15:12:07.444Z,54.31
2022-12-23T15:14:41.348Z,56.75
2022-12-23T15:17:29.828Z,57.54
2022-12-23T15:20:16.044Z,56.64
2022-12-23T15:22:47.444Z,56.26
2022-12-23T15:25:28.044Z,55.44
2022-12-23T15:28:02.257Z,50.19
2022-12-23T15:30:37.793Z,52.53
2022-12-23T15:33:34.825Z,53.46
2022-12-23T15:36:05.914Z,53.93
2022-12-23T15:38:39.093Z,54.07
2022-12-23T15:41:23.876Z,55.44
2022-12-23T15:43:59.461Z,53.56
2022-12-23T15:46:30.695Z,50.62
2022-12-23T15:49:01.602Z,49.49
2022-12-23T15:52:07.170Z,50.46
2022-12-23T15:54:41.851Z,50.72
2022-12-23T15:57:18.701Z,51.91
2022-12-23T15:59:48.933Z,51.37
2022-12-23T16:02:59.766Z,49.75
2022-12-23T16:05:38.741Z,50.94
2022-12-23T16:08:26.528Z,47.95
2022-12-23T16:11:08.213Z,50.75
2022-12-23T16:13:41.568Z,48.46
2022-12-23T16:16:33.765Z,48.43
2022-12-23T16:19:03.916Z,46.12
2022-12-23T16:21:37.492Z,46.61
2022-12-23T16:24:11.298Z,48.90
2022-12-23T16:26:45.570Z,50.23
2022-12-23T16:29:16.869Z,48.68
2022-12-23T16:31:52.290Z,50.31
2022-12-23T16:34:26.301Z,49.70
2022-12-23T16:36:56.255Z,49.71
2022-12-23T16:39:25.818Z,47.47
2022-12-23T16:41:55.398Z,45.91
2022-12-23T16:44:24.922Z,47.70
2022-12-23T16:46:54.874Z,47.60
2022-12-23T16:49:31.285Z,45.12
2022-12-23T16:52:05.743Z,47.18
2022-12-23T16:54:35.645Z,47.93
2022-12-23T16:57:05.338Z,49.54
2022-12-23T16:59:35.381Z,48.64
2022-12-23T17:02:05.015Z,49.68
2022-12-23T17:04:34.560Z,47.49
2022-12-23T17:07:07.079Z,47.61
2022-12-23T17:09:36.970Z,49.20
2022-12-23T17:12:06.939Z,47.30
2022-12-23T17:14:36.509Z,45.70
2022-12-23T17:17:16.727Z,44.27
2022-12-23T17:19:46.663Z,46.53
2022-12-23T17:22:16.239Z,47.54
2022-12-23T17:24:46.316Z,49.87
2022-12-23T17:27:18.167Z,48.06
2022-12-23T17:29:48.689Z,49.82
2022-12-23T17:32:20.253Z,49.45
2022-12-23T17:34:50.786Z,47.76
2022-12-23T17:37:23.859Z,49.02
2022-12-23T17:39:53.814Z,48.71
2022-12-23T17:42:26.106Z,48.00
2022-12-23T17:44:56.390Z,47.48
2022-12-23T17:47:26.341Z,49.39
2022-12-23T17:49:55.917Z,48.55
2022-12-23T17:52:25.961Z,49.93
2022-12-23T17:54:55.558Z,50.64
2022-12-23T17:57:28.047Z,49.45
2022-12-23T17:59:58.386Z,52.73
2022-12-23T18:02:36.269Z,49.94
2022-12-23T18:05:34.114Z,52.43
2022-12-23T18:08:05.440Z,49.99
2022-12-23T18:10:38.444Z,53.03
2022-12-23T18:13:11.692Z,51.31
2022-12-23T18:15:44.657Z,52.09
2022-12-23T18:18:30.195Z,53.42
2022-12-23T18:21:08.530Z,53.10
2022-12-23T18:23:38.445Z,52.24
2022-12-23T18:26:07.977Z,53.43
2022-12-23T18:28:37.926Z,53.81
2022-12-23T18:31:07.640Z,53.56
2022-12-23T18:33:37.626Z,52.35
2022-12-23T18:36:07.299Z,51.90
2022-12-23T18:38:36.844Z,52.29
2022-12-23T18:41:06.402Z,53.05
2022-12-23T18:43:35.953Z,51.44
2022-12-23T18:46:05.795Z,50.51
2022-12-23T18:48:35.821Z,49.99
2022-12-23T18:51:05.530Z,51.92
2022-12-23T18:53:35.120Z,50.74
2022-12-23T18:56:04.676Z,51.30
2022-12-23T18:58:35.097Z,51.89
2022-12-23T19:01:04.820Z,52.27
2022-12-23T19:03:34.932Z,53.08
2022-12-23T19:06:07.967Z,52.28
2022-12-23T19:08:38.802Z,53.24
2022-12-23T19:11:26.013Z,51.88
2022-12-23T19:13:55.938Z,50.92
2022-12-23T19:16:26.060Z,51.20
2022-12-23T19:18:57.364Z,50.92
2022-12-23T19:21:27.284Z,50.97
2022-12-23T19:23:56.859Z,49.63
2022-12-23T19:26:27.006Z,50.30
2022-12-23T19:28:57.079Z,52.90
2022-12-23T19:31:26.728Z,52.10
2022-12-23T19:33:56.339Z,52.10
2022-12-23T19:36:26.026Z,53.51
2022-12-23T19:38:57.132Z,50.31
2022-12-23T19:41:28.145Z,50.16
2022-12-23T19:43:58.296Z,49.23
2022-12-23T19:46:27.976Z,49.79
2022-12-23T19:48:58.492Z,49.60
2022-12-23T19:51:28.088Z,48.16
2022-12-23T19:53:57.637Z,47.25
2022-12-23T19:56:28.578Z,49.89
2022-12-23T19:58:58.276Z,46.32
2022-12-23T20:01:29.044Z,49.29
2022-12-23T20:03:58.896Z,51.08
2022-12-23T20:06:32.176Z,51.52
2022-12-23T20:09:05.444Z,52.38
2022-12-23T20:11:38.451Z,53.25
2022-12-23T20:14:09.397Z,53.71
2022-12-23T20:16:41.364Z,52.41
2022-12-23T20:19:12.106Z,54.16
2022-12-23T20:21:42.281Z,53.55
2022-12-23T20:24:11.870Z,53.30
2022-12-23T20:26:42.012Z,53.43
2022-12-23T20:29:12.009Z,55.29
2022-12-23T20:31:42.112Z,54.40
2022-12-23T20:34:16.632Z,57.36
2022-12-23T20:36:47.065Z,55.17
2022-12-23T20:39:16.677Z,55.81
2022-12-23T20:41:46.561Z,55.23
2022-12-23T20:47:07.366Z,56.09
2022-12-23T20:49:37.307Z,56.35
2022-12-23T20:52:06.958Z,56.82
2022-12-23T20:54:36.653Z,56.04
2022-12-23T20:57:06.654Z,56.52
2022-12-23T20:59:36.539Z,55.87
2022-12-23T21:02:06.120Z,56.47
2022-12-23T21:04:35.782Z,57.29
2022-12-23T21:07:05.410Z,56.71
2022-12-23T21:09:35.176Z,56.44
2022-12-23T21:12:05.349Z,57.29
2022-12-23T21:14:34.962Z,57.14
2022-12-23T21:17:04.647Z,57.23
2022-12-23T21:19:35.885Z,59.33
2022-12-23T21:22:05.989Z,61.65
2022-12-23T21:24:35.724Z,62.40
2022-12-23T21:27:05.329Z,61.31
2022-12-23T21:29:34.872Z,63.76
2022-12-23T21:32:05.408Z,61.17
2022-12-23T21:34:34.940Z,62.80
2022-12-23T21:37:04.960Z,62.60
2022-12-23T21:39:34.496Z,64.20
2022-12-23T21:42:04.036Z,66.27
2022-12-23T21:44:33.616Z,66.33
2022-12-23T21:47:03.201Z,68.36
2022-12-23T21:49:33.117Z,70.57
2022-12-23T21:52:02.667Z,71.34
2022-12-23T21:54:32.204Z,71.07
2022-12-23T21:57:01.821Z,72.18
2022-12-23T21:59:35.191Z,75.35
2022-12-23T22:02:05.882Z,75.32
2022-12-23T22:04:36.002Z,75.35
2022-12-23T22:07:05.549Z,75.53
2022-12-23T22:09:35.161Z,77.73
2022-12-23T22:12:06.326Z,78.03
2022-12-23T22:14:36.292Z,79.64
2022-12-23T22:17:06.355Z,79.67
2022-12-23T22:19:35.906Z,80.31
2022-12-23T22:22:05.570Z,82.31
2022-12-23T22:24:35.121Z,82.51
2022-12-23T22:27:04.923Z,82.05
2022-12-23T22:29:34.509Z,82.67
2022-12-23T22:32:04.147Z,82.10
2022-12-23T22:34:33.749Z,82.00
2022-12-23T22:37:03.329Z,82.30
2022-12-23T22:39:33.086Z,83.20
2022-12-23T22:42:03.037Z,83.32
2022-12-23T22:44:32.600Z,83.81
2022-12-23T22:47:02.186Z,84.11
2022-12-23T22:49:31.795Z,84.74
2022-12-23T22:52:01.359Z,85.09
2022-12-23T22:54:31.394Z,85.25
2022-12-23T22:57:01.197Z,85.33
2022-12-23T22:59:30.811Z,86.22
2022-12-23T23:02:00.461Z,86.87
2022-12-23T23:04:30.147Z,87.18
2022-12-23T23:06:59.717Z,88.13
2022-12-23T23:09:29.718Z,88.85
2022-12-23T23:11:59.736Z,89.45
2022-12-23T23:14:29.296Z,89.83
2022-12-23T23:16:58.873Z,90.26
2022-12-23T23:19:28.462Z,90.58
2022-12-23T23:21:58.049Z,91.06
2022-12-23T23:24:31.404Z,91.10
2022-12-23T23:27:01.983Z,91.43
2022-12-23T23:29:31.804Z,91.66
2022-12-23T23:32:01.886Z,92.09
2022-12-23T23:34:32.072Z,92.72
2022-12-23T23:37:02.896Z,93.46
2022-12-23T23:39:32.633Z,93.60
2022-12-23T23:42:02.777Z,93.70
2022-12-23T23:44:32.729Z,93.87
2022-12-23T23:47:02.964Z,94.13
2022-12-23T23:49:32.674Z,94.38
2022-12-23T23:52:02.199Z,94.92
2022-12-23T23:54:31.735Z,95.56
2022-12-23T23:57:02.176Z,95.96
2022-12-23T23:59:32.287Z,96.20
